KHB102 UIII-UHHH
Flight info
| Callsign | KHB102 |
|---|---|
| Flight time | 3h 7m |
| Altitude | 35000 |
| Route | GOLOS5D GOLOS A810 KUDAR P873 NIKTO G229 GU N992 TORMA A946 IVADA IVADA6F |
| Aircraft | A320/M-SDE3FGHIRWY/LB1 |
Departure
| Time | 2026-04-21 00:43 |
|---|---|
| Airport | Irkutsk International Airport (UIII) |
Arrival
| Time | 2026-04-21 03:50 |
|---|---|
| Airport | Khabarovsk Novy Airport (UHHH) |
| Time | Latitude | Longitude | Altitude | Speed | Heading |
|---|---|---|---|---|---|
| 2026-04-20 23:59 | 52.27204 | 104.35389 | 1586 ft | 0 kts | 88° |
| 2026-04-21 00:10 | 52.27204 | 104.35388 | 1586 ft | 0 kts | 88° |
| 2026-04-21 00:29 | 52.27204 | 104.35391 | 1586 ft | 2 kts | 88° |
| 2026-04-21 00:30 | 52.27201 | 104.35433 | 1586 ft | 5 kts | 113° |
| 2026-04-21 00:30 | 52.27157 | 104.35464 | 1586 ft | 7 kts | 141° |
| 2026-04-21 00:30 | 52.27145 | 104.35526 | 1586 ft | 7 kts | 88° |
| 2026-04-21 00:30 | 52.27148 | 104.35623 | 1586 ft | 10 kts | 87° |
| 2026-04-21 00:31 | 52.27152 | 104.35743 | 1586 ft | 10 kts | 85° |
| 2026-04-21 00:31 | 52.27173 | 104.35857 | 1586 ft | 12 kts | 77° |
| 2026-04-21 00:31 | 52.27179 | 104.35988 | 1586 ft | 11 kts | 88° |
| 2026-04-21 00:31 | 52.27182 | 104.36117 | 1586 ft | 11 kts | 87° |
| 2026-04-21 00:32 | 52.27185 | 104.36235 | 1586 ft | 9 kts | 89° |
| 2026-04-21 00:32 | 52.27173 | 104.36330 | 1586 ft | 9 kts | 110° |
| 2026-04-21 00:32 | 52.27138 | 104.36487 | 1586 ft | 19 kts | 111° |
| 2026-04-21 00:32 | 52.27088 | 104.36692 | 1585 ft | 20 kts | 111° |
| 2026-04-21 00:33 | 52.27039 | 104.36905 | 1584 ft | 20 kts | 110° |
| 2026-04-21 00:33 | 52.26996 | 104.37102 | 1584 ft | 16 kts | 110° |
| 2026-04-21 00:33 | 52.26998 | 104.37245 | 1585 ft | 12 kts | 82° |
| 2026-04-21 00:33 | 52.26970 | 104.37400 | 1586 ft | 16 kts | 112° |
| 2026-04-21 00:34 | 52.26931 | 104.37547 | 1588 ft | 15 kts | 113° |
| 2026-04-21 00:34 | 52.26886 | 104.37716 | 1592 ft | 18 kts | 114° |
| 2026-04-21 00:34 | 52.26833 | 104.37913 | 1597 ft | 18 kts | 114° |
| 2026-04-21 00:34 | 52.26787 | 104.38085 | 1604 ft | 16 kts | 113° |
| 2026-04-21 00:35 | 52.26743 | 104.38251 | 1611 ft | 16 kts | 113° |
| 2026-04-21 00:35 | 52.26696 | 104.38432 | 1619 ft | 20 kts | 114° |
| 2026-04-21 00:35 | 52.26635 | 104.38659 | 1621 ft | 20 kts | 113° |
| 2026-04-21 00:35 | 52.26590 | 104.38829 | 1631 ft | 13 kts | 114° |
| 2026-04-21 00:36 | 52.26545 | 104.38997 | 1641 ft | 20 kts | 114° |
| 2026-04-21 00:36 | 52.26489 | 104.39205 | 1644 ft | 20 kts | 113° |
| 2026-04-21 00:36 | 52.26431 | 104.39420 | 1642 ft | 21 kts | 114° |
| 2026-04-21 00:36 | 52.26376 | 104.39630 | 1647 ft | 19 kts | 113° |
| 2026-04-21 00:37 | 52.26329 | 104.39812 | 1651 ft | 16 kts | 113° |
| 2026-04-21 00:37 | 52.26282 | 104.39986 | 1655 ft | 18 kts | 114° |
| 2026-04-21 00:37 | 52.26226 | 104.40192 | 1663 ft | 22 kts | 114° |
| 2026-04-21 00:37 | 52.26169 | 104.40407 | 1669 ft | 20 kts | 113° |
| 2026-04-21 00:38 | 52.26120 | 104.40597 | 1681 ft | 17 kts | 113° |
| 2026-04-21 00:38 | 52.26079 | 104.40752 | 1672 ft | 14 kts | 113° |
| 2026-04-21 00:38 | 52.26037 | 104.40910 | 1679 ft | 16 kts | 113° |
| 2026-04-21 00:38 | 52.25997 | 104.41074 | 1679 ft | 13 kts | 103° |
| 2026-04-21 00:39 | 52.26020 | 104.41171 | 1683 ft | 0 kts | 39° |
| 2026-04-21 00:40 | 52.26026 | 104.41178 | 1684 ft | 3 kts | 32° |
| 2026-04-21 00:41 | 52.26058 | 104.41202 | 1691 ft | 6 kts | 24° |
| 2026-04-21 00:41 | 52.26114 | 104.41242 | 1694 ft | 9 kts | 23° |
| 2026-04-21 00:41 | 52.26172 | 104.41284 | 1694 ft | 9 kts | 22° |
| 2026-04-21 00:41 | 52.26231 | 104.41261 | 1691 ft | 10 kts | 312° |
| 2026-04-21 00:42 | 52.26245 | 104.41219 | 1689 ft | 0 kts | 295° |
| 2026-04-21 00:42 | 52.26266 | 104.41146 | 1691 ft | 30 kts | 294° |
| 2026-04-21 00:42 | 52.26461 | 104.40401 | 1676 ft | 110 kts | 293° |
| 2026-04-21 00:43 | 52.26856 | 104.38917 | 1665 ft | 168 kts | 293° |
| 2026-04-21 00:43 | 52.27316 | 104.37162 | 2400 ft | 166 kts | 292° |
| 2026-04-21 00:43 | 52.27764 | 104.35419 | 3339 ft | 166 kts | 293° |
| 2026-04-21 00:43 | 52.28214 | 104.33693 | 3890 ft | 172 kts | 295° |
| 2026-04-21 00:44 | 52.28537 | 104.32468 | 4066 ft | 182 kts | 295° |
| 2026-04-21 00:44 | 52.29062 | 104.30492 | 4365 ft | 199 kts | 295° |
| 2026-04-21 00:44 | 52.30170 | 104.27889 | 4565 ft | 227 kts | 332° |
| 2026-04-21 00:45 | 52.33387 | 104.28009 | 5748 ft | 247 kts | 15° |
| 2026-04-21 00:45 | 52.35044 | 104.28942 | 6434 ft | 256 kts | 17° |
| 2026-04-21 00:45 | 52.36743 | 104.29922 | 7127 ft | 261 kts | 15° |
| 2026-04-21 00:45 | 52.37910 | 104.30551 | 7626 ft | 263 kts | 13° |
| 2026-04-21 00:46 | 52.39670 | 104.31415 | 8376 ft | 266 kts | 11° |
| 2026-04-21 00:46 | 52.41466 | 104.32209 | 9125 ft | 269 kts | 9° |
| 2026-04-21 00:46 | 52.43255 | 104.33214 | 9857 ft | 280 kts | 24° |
| 2026-04-21 00:46 | 52.44710 | 104.35441 | 10506 ft | 299 kts | 53° |
| 2026-04-21 00:47 | 52.45372 | 104.38740 | 11127 ft | 316 kts | 84° |
| 2026-04-21 00:47 | 52.45173 | 104.42461 | 11375 ft | 341 kts | 97° |
| 2026-04-21 00:47 | 52.44715 | 104.46417 | 11511 ft | 364 kts | 100° |
| 2026-04-21 00:47 | 52.44141 | 104.50582 | 11649 ft | 385 kts | 101° |
| 2026-04-21 00:48 | 52.43498 | 104.54946 | 11895 ft | 401 kts | 103° |
| 2026-04-21 00:48 | 52.42615 | 104.59319 | 12405 ft | 408 kts | 107° |
| 2026-04-21 00:48 | 52.41712 | 104.63763 | 12953 ft | 413 kts | 106° |
| 2026-04-21 00:48 | 52.40835 | 104.68273 | 13503 ft | 419 kts | 105° |
| 2026-04-21 00:49 | 52.39969 | 104.72862 | 14062 ft | 424 kts | 104° |
| 2026-04-21 00:49 | 52.39116 | 104.77443 | 14542 ft | 428 kts | 104° |
| 2026-04-21 00:49 | 52.38232 | 104.82185 | 15058 ft | 433 kts | 104° |
| 2026-04-21 00:49 | 52.37342 | 104.86913 | 15573 ft | 437 kts | 104° |
| 2026-04-21 00:50 | 52.36435 | 104.91675 | 16089 ft | 441 kts | 104° |
| 2026-04-21 00:50 | 52.35508 | 104.96481 | 16598 ft | 445 kts | 104° |
| 2026-04-21 00:50 | 52.34566 | 105.01319 | 17096 ft | 449 kts | 104° |
| 2026-04-21 00:50 | 52.33611 | 105.06207 | 17592 ft | 453 kts | 104° |
| 2026-04-21 00:51 | 52.32648 | 105.11126 | 18104 ft | 457 kts | 104° |
| 2026-04-21 00:51 | 52.31674 | 105.16091 | 18572 ft | 461 kts | 104° |
| 2026-04-21 00:51 | 52.30701 | 105.21040 | 18971 ft | 464 kts | 104° |
| 2026-04-21 00:51 | 52.29697 | 105.26138 | 19382 ft | 467 kts | 104° |
| 2026-04-21 00:52 | 52.28805 | 105.31250 | 19791 ft | 468 kts | 98° |
| 2026-04-21 00:52 | 52.28347 | 105.36414 | 20185 ft | 466 kts | 89° |
| 2026-04-21 00:52 | 52.28327 | 105.41688 | 20601 ft | 463 kts | 82° |
| 2026-04-21 00:52 | 52.28452 | 105.46972 | 20986 ft | 467 kts | 82° |
| 2026-04-21 00:53 | 52.28570 | 105.52282 | 21375 ft | 470 kts | 82° |
| 2026-04-21 00:53 | 52.28678 | 105.57630 | 21739 ft | 473 kts | 82° |
| 2026-04-21 00:53 | 52.28778 | 105.63015 | 22102 ft | 475 kts | 82° |
| 2026-04-21 00:53 | 52.28872 | 105.68424 | 22457 ft | 478 kts | 82° |
| 2026-04-21 00:54 | 52.28965 | 105.73875 | 22791 ft | 481 kts | 82° |
| 2026-04-21 00:54 | 52.29059 | 105.79352 | 23111 ft | 483 kts | 82° |
| 2026-04-21 00:54 | 52.29157 | 105.84852 | 23442 ft | 486 kts | 82° |
| 2026-04-21 00:54 | 52.29252 | 105.90383 | 23768 ft | 489 kts | 82° |
| 2026-04-21 00:55 | 52.29344 | 105.95947 | 24049 ft | 491 kts | 82° |
| 2026-04-21 00:55 | 52.29432 | 106.01538 | 24321 ft | 493 kts | 82° |
| 2026-04-21 00:55 | 52.29516 | 106.07145 | 24595 ft | 495 kts | 82° |
| 2026-04-21 00:55 | 52.29600 | 106.12779 | 24860 ft | 497 kts | 82° |
| 2026-04-21 00:56 | 52.29685 | 106.18441 | 25123 ft | 499 kts | 82° |
| 2026-04-21 00:56 | 52.29766 | 106.24122 | 25377 ft | 501 kts | 82° |
| 2026-04-21 00:56 | 52.29843 | 106.29819 | 25623 ft | 503 kts | 82° |
| 2026-04-21 00:56 | 52.29913 | 106.35469 | 25861 ft | 505 kts | 82° |
| 2026-04-21 00:57 | 52.29981 | 106.41287 | 26101 ft | 507 kts | 82° |
| 2026-04-21 00:57 | 52.30161 | 106.47019 | 26325 ft | 503 kts | 76° |
| 2026-04-21 00:57 | 52.30767 | 106.52588 | 26545 ft | 495 kts | 67° |
| 2026-04-21 00:57 | 52.31660 | 106.58017 | 26756 ft | 495 kts | 66° |
| 2026-04-21 00:58 | 52.32555 | 106.63460 | 26971 ft | 497 kts | 66° |
| 2026-04-21 00:58 | 52.33443 | 106.68918 | 27183 ft | 498 kts | 66° |
| 2026-04-21 00:58 | 52.34328 | 106.74411 | 27374 ft | 499 kts | 67° |
| 2026-04-21 00:58 | 52.35208 | 106.79907 | 27594 ft | 500 kts | 67° |
| 2026-04-21 00:59 | 52.36085 | 106.85396 | 27883 ft | 499 kts | 67° |
| 2026-04-21 00:59 | 52.36962 | 106.90890 | 28169 ft | 498 kts | 67° |
| 2026-04-21 00:59 | 52.37835 | 106.96367 | 28465 ft | 497 kts | 67° |
| 2026-04-21 00:59 | 52.38706 | 107.01834 | 28771 ft | 496 kts | 67° |
| 2026-04-21 01:00 | 52.39576 | 107.07297 | 29094 ft | 495 kts | 67° |
| 2026-04-21 01:00 | 52.40445 | 107.12753 | 29394 ft | 495 kts | 67° |
| 2026-04-21 01:00 | 52.41309 | 107.18203 | 29690 ft | 494 kts | 67° |
| 2026-04-21 01:00 | 52.42168 | 107.23644 | 30009 ft | 493 kts | 67° |
| 2026-04-21 01:01 | 52.43024 | 107.29077 | 30321 ft | 492 kts | 67° |
| 2026-04-21 01:01 | 52.43876 | 107.34505 | 30543 ft | 492 kts | 68° |
| 2026-04-21 01:01 | 52.44721 | 107.39926 | 30791 ft | 491 kts | 68° |
| 2026-04-21 01:01 | 52.45561 | 107.45355 | 31025 ft | 491 kts | 68° |
| 2026-04-21 01:02 | 52.46398 | 107.50775 | 31258 ft | 491 kts | 69° |
| 2026-04-21 01:02 | 52.47235 | 107.56204 | 31484 ft | 491 kts | 69° |
| 2026-04-21 01:02 | 52.48069 | 107.61625 | 31708 ft | 490 kts | 69° |
| 2026-04-21 01:02 | 52.48902 | 107.67050 | 31911 ft | 490 kts | 69° |
| 2026-04-21 01:03 | 52.49732 | 107.72472 | 32097 ft | 490 kts | 70° |
| 2026-04-21 01:03 | 52.50561 | 107.77903 | 32320 ft | 490 kts | 70° |
| 2026-04-21 01:03 | 52.51386 | 107.83333 | 32545 ft | 490 kts | 70° |
| 2026-04-21 01:03 | 52.52209 | 107.88768 | 32768 ft | 490 kts | 70° |
| 2026-04-21 01:04 | 52.53026 | 107.94199 | 32980 ft | 490 kts | 71° |
| 2026-04-21 01:04 | 52.53840 | 107.99625 | 33213 ft | 490 kts | 71° |
| 2026-04-21 01:04 | 52.54642 | 108.04983 | 33409 ft | 489 kts | 71° |
| 2026-04-21 01:04 | 52.55453 | 108.10414 | 33625 ft | 489 kts | 71° |
| 2026-04-21 01:05 | 52.56259 | 108.15840 | 33849 ft | 489 kts | 72° |
| 2026-04-21 01:05 | 52.57064 | 108.21263 | 34080 ft | 488 kts | 72° |
| 2026-04-21 01:05 | 52.57866 | 108.26680 | 34294 ft | 488 kts | 72° |
| 2026-04-21 01:05 | 52.58663 | 108.32096 | 34495 ft | 487 kts | 72° |
| 2026-04-21 01:06 | 52.59455 | 108.37505 | 34700 ft | 486 kts | 72° |
| 2026-04-21 01:06 | 52.60245 | 108.42914 | 34891 ft | 485 kts | 72° |
| 2026-04-21 01:06 | 52.61029 | 108.48300 | 35098 ft | 484 kts | 72° |
| 2026-04-21 01:06 | 52.61813 | 108.53688 | 35202 ft | 485 kts | 72° |
| 2026-04-21 01:07 | 52.63378 | 108.64502 | 35226 ft | 485 kts | 72° |
| 2026-04-21 01:07 | 52.64916 | 108.75245 | 35225 ft | 485 kts | 72° |
| 2026-04-21 01:08 | 52.66453 | 108.86075 | 35218 ft | 486 kts | 73° |
| 2026-04-21 01:08 | 52.67985 | 108.96915 | 35216 ft | 486 kts | 73° |
| 2026-04-21 01:09 | 52.69515 | 109.07768 | 35202 ft | 486 kts | 73° |
| 2026-04-21 01:09 | 52.71032 | 109.18629 | 35207 ft | 486 kts | 73° |
| 2026-04-21 01:10 | 52.72541 | 109.29511 | 35200 ft | 487 kts | 73° |
| 2026-04-21 01:10 | 52.74039 | 109.40418 | 35200 ft | 488 kts | 73° |
| 2026-04-21 01:11 | 52.75518 | 109.51341 | 35187 ft | 488 kts | 73° |
| 2026-04-21 01:11 | 52.76993 | 109.62278 | 35185 ft | 488 kts | 73° |
| 2026-04-21 01:12 | 52.78465 | 109.73216 | 35187 ft | 488 kts | 73° |
| 2026-04-21 01:12 | 52.79925 | 109.84156 | 35181 ft | 488 kts | 73° |
| 2026-04-21 01:13 | 52.81379 | 109.95099 | 35180 ft | 487 kts | 74° |
| 2026-04-21 01:13 | 52.82815 | 110.06042 | 35181 ft | 487 kts | 74° |
| 2026-04-21 01:14 | 52.84226 | 110.16923 | 35176 ft | 487 kts | 74° |
| 2026-04-21 01:14 | 52.85643 | 110.27863 | 35169 ft | 486 kts | 74° |
| 2026-04-21 01:15 | 52.87054 | 110.38796 | 35166 ft | 486 kts | 74° |
| 2026-04-21 01:15 | 52.88457 | 110.49723 | 35155 ft | 485 kts | 75° |
| 2026-04-21 01:16 | 52.89837 | 110.60672 | 35149 ft | 485 kts | 75° |
| 2026-04-21 01:16 | 52.91204 | 110.71610 | 35142 ft | 485 kts | 75° |
| 2026-04-21 01:17 | 52.92569 | 110.82545 | 35137 ft | 484 kts | 75° |
| 2026-04-21 01:17 | 52.93919 | 110.93462 | 35135 ft | 483 kts | 75° |
| 2026-04-21 01:18 | 52.95255 | 111.04373 | 35120 ft | 482 kts | 75° |
| 2026-04-21 01:18 | 52.96566 | 111.15183 | 35108 ft | 481 kts | 76° |
| 2026-04-21 01:19 | 52.97876 | 111.26054 | 35099 ft | 480 kts | 76° |
| 2026-04-21 01:19 | 52.99169 | 111.36914 | 35085 ft | 479 kts | 76° |
| 2026-04-21 01:20 | 53.00450 | 111.47766 | 35076 ft | 479 kts | 76° |
| 2026-04-21 01:20 | 53.01727 | 111.58599 | 35067 ft | 478 kts | 76° |
| 2026-04-21 01:21 | 53.02989 | 111.69432 | 35063 ft | 478 kts | 77° |
| 2026-04-21 01:21 | 53.04232 | 111.80271 | 35044 ft | 477 kts | 77° |
| 2026-04-21 01:22 | 53.05467 | 111.91102 | 35035 ft | 477 kts | 77° |
| 2026-04-21 01:22 | 53.06693 | 112.01921 | 35027 ft | 476 kts | 77° |
| 2026-04-21 01:23 | 53.07911 | 112.12736 | 35018 ft | 475 kts | 77° |
| 2026-04-21 01:23 | 53.09115 | 112.23550 | 35005 ft | 475 kts | 77° |
| 2026-04-21 01:24 | 53.10308 | 112.34354 | 34997 ft | 475 kts | 78° |
| 2026-04-21 01:24 | 53.11495 | 112.45151 | 34983 ft | 474 kts | 78° |
| 2026-04-21 01:25 | 53.12669 | 112.55952 | 34977 ft | 474 kts | 78° |
| 2026-04-21 01:25 | 53.13828 | 112.66751 | 34964 ft | 474 kts | 78° |
| 2026-04-21 01:26 | 53.14984 | 112.77555 | 34953 ft | 474 kts | 78° |
| 2026-04-21 01:26 | 53.16124 | 112.88351 | 34944 ft | 473 kts | 78° |
| 2026-04-21 01:27 | 53.17240 | 112.99088 | 34934 ft | 473 kts | 78° |
| 2026-04-21 01:27 | 53.18356 | 113.09892 | 34923 ft | 473 kts | 78° |
| 2026-04-21 01:28 | 53.19470 | 113.20698 | 34914 ft | 473 kts | 78° |
| 2026-04-21 01:28 | 53.20569 | 113.31513 | 34910 ft | 473 kts | 78° |
| 2026-04-21 01:29 | 53.21663 | 113.42340 | 34910 ft | 473 kts | 78° |
| 2026-04-21 01:29 | 53.22744 | 113.53158 | 34905 ft | 473 kts | 79° |
| 2026-04-21 01:30 | 53.23814 | 113.63987 | 34906 ft | 473 kts | 79° |
| 2026-04-21 01:30 | 53.24880 | 113.74827 | 34916 ft | 473 kts | 79° |
| 2026-04-21 01:31 | 53.25934 | 113.85664 | 34919 ft | 473 kts | 79° |
| 2026-04-21 01:31 | 53.26978 | 113.96488 | 34918 ft | 472 kts | 79° |
| 2026-04-21 01:32 | 53.28010 | 114.07315 | 34920 ft | 472 kts | 79° |
| 2026-04-21 01:32 | 53.28853 | 114.16312 | 34923 ft | 472 kts | 79° |
| 2026-04-21 01:33 | 53.29860 | 114.27154 | 34923 ft | 472 kts | 80° |
| 2026-04-21 01:33 | 53.31028 | 114.39753 | 34931 ft | 472 kts | 79° |
| 2026-04-21 01:34 | 53.32020 | 114.50590 | 34935 ft | 472 kts | 80° |
| 2026-04-21 01:34 | 53.32846 | 114.59672 | 34937 ft | 471 kts | 80° |
| 2026-04-21 01:35 | 53.33803 | 114.70516 | 34942 ft | 471 kts | 80° |
| 2026-04-21 01:35 | 53.34754 | 114.81340 | 34942 ft | 470 kts | 80° |
| 2026-04-21 01:36 | 53.35702 | 114.92150 | 34940 ft | 469 kts | 80° |
| 2026-04-21 01:36 | 53.36640 | 115.02888 | 34942 ft | 469 kts | 81° |
| 2026-04-21 01:37 | 53.37574 | 115.13688 | 34939 ft | 468 kts | 81° |
| 2026-04-21 01:37 | 53.38499 | 115.24472 | 34936 ft | 467 kts | 81° |
| 2026-04-21 01:38 | 53.39401 | 115.35247 | 34937 ft | 467 kts | 81° |
| 2026-04-21 01:38 | 53.40285 | 115.46029 | 34933 ft | 467 kts | 81° |
| 2026-04-21 01:39 | 53.41160 | 115.56805 | 34930 ft | 466 kts | 81° |
| 2026-04-21 01:39 | 53.42030 | 115.67565 | 34928 ft | 466 kts | 81° |
| 2026-04-21 01:40 | 53.42905 | 115.78323 | 34924 ft | 466 kts | 81° |
| 2026-04-21 01:40 | 53.43757 | 115.89074 | 34917 ft | 465 kts | 82° |
| 2026-04-21 01:41 | 53.44596 | 115.99820 | 34914 ft | 464 kts | 81° |
| 2026-04-21 01:41 | 53.45429 | 116.10556 | 34910 ft | 464 kts | 82° |
| 2026-04-21 01:42 | 53.46255 | 116.21276 | 34909 ft | 463 kts | 82° |
| 2026-04-21 01:42 | 53.47066 | 116.31993 | 34897 ft | 462 kts | 82° |
| 2026-04-21 01:43 | 53.47853 | 116.42623 | 34894 ft | 461 kts | 82° |
| 2026-04-21 01:43 | 53.48638 | 116.53303 | 34894 ft | 461 kts | 82° |
| 2026-04-21 01:44 | 53.49412 | 116.63979 | 34885 ft | 460 kts | 82° |
| 2026-04-21 01:44 | 53.50175 | 116.74625 | 34881 ft | 460 kts | 82° |
| 2026-04-21 01:45 | 53.50941 | 116.85320 | 34877 ft | 459 kts | 82° |
| 2026-04-21 01:45 | 53.51718 | 116.95976 | 34859 ft | 459 kts | 82° |
| 2026-04-21 01:46 | 53.52498 | 117.06545 | 34857 ft | 458 kts | 82° |
| 2026-04-21 01:46 | 53.53264 | 117.17181 | 34850 ft | 458 kts | 82° |
| 2026-04-21 01:47 | 53.54023 | 117.27862 | 34843 ft | 458 kts | 82° |
| 2026-04-21 01:47 | 53.54758 | 117.38454 | 34829 ft | 458 kts | 82° |
| 2026-04-21 01:48 | 53.55487 | 117.49117 | 34829 ft | 458 kts | 82° |
| 2026-04-21 01:48 | 53.56212 | 117.59760 | 34818 ft | 458 kts | 83° |
| 2026-04-21 01:49 | 53.56918 | 117.70393 | 34810 ft | 457 kts | 83° |
| 2026-04-21 01:49 | 53.57616 | 117.81025 | 34803 ft | 457 kts | 83° |
| 2026-04-21 01:50 | 53.58306 | 117.91655 | 34797 ft | 457 kts | 83° |
| 2026-04-21 01:50 | 53.58986 | 118.02287 | 34792 ft | 457 kts | 83° |
| 2026-04-21 01:51 | 53.59662 | 118.12911 | 34790 ft | 457 kts | 83° |
| 2026-04-21 01:51 | 53.60331 | 118.23541 | 34789 ft | 456 kts | 83° |
| 2026-04-21 01:52 | 53.61299 | 118.39402 | 34790 ft | 456 kts | 83° |
| 2026-04-21 01:53 | 53.61943 | 118.50020 | 34786 ft | 455 kts | 84° |
| 2026-04-21 01:53 | 53.62567 | 118.60632 | 34784 ft | 455 kts | 84° |
| 2026-04-21 01:54 | 53.63179 | 118.71231 | 34781 ft | 454 kts | 84° |
| 2026-04-21 01:54 | 53.63791 | 118.81817 | 34786 ft | 454 kts | 83° |
| 2026-04-21 01:55 | 53.64394 | 118.92393 | 34788 ft | 453 kts | 84° |
| 2026-04-21 01:55 | 53.64975 | 119.02957 | 34776 ft | 452 kts | 84° |
| 2026-04-21 01:56 | 53.65551 | 119.13510 | 34774 ft | 452 kts | 84° |
| 2026-04-21 01:56 | 53.66118 | 119.24048 | 34776 ft | 451 kts | 84° |
| 2026-04-21 01:57 | 53.66673 | 119.34580 | 34770 ft | 451 kts | 84° |
| 2026-04-21 01:57 | 53.67225 | 119.45103 | 34769 ft | 450 kts | 84° |
| 2026-04-21 01:58 | 53.67760 | 119.55552 | 34764 ft | 450 kts | 84° |
| 2026-04-21 01:58 | 53.68283 | 119.66055 | 34760 ft | 449 kts | 84° |
| 2026-04-21 01:59 | 53.68784 | 119.76558 | 34760 ft | 449 kts | 85° |
| 2026-04-21 01:59 | 53.69228 | 119.87061 | 34753 ft | 448 kts | 85° |
| 2026-04-21 02:00 | 53.69646 | 119.97557 | 34754 ft | 448 kts | 85° |
| 2026-04-21 02:00 | 53.70053 | 120.07980 | 34748 ft | 448 kts | 85° |
| 2026-04-21 02:01 | 53.70466 | 120.18546 | 34752 ft | 448 kts | 85° |
| 2026-04-21 02:01 | 53.70865 | 120.28952 | 34747 ft | 447 kts | 85° |
| 2026-04-21 02:02 | 53.71258 | 120.39421 | 34745 ft | 446 kts | 85° |
| 2026-04-21 02:02 | 53.71641 | 120.49879 | 34741 ft | 446 kts | 85° |
| 2026-04-21 02:03 | 53.72004 | 120.60342 | 34731 ft | 446 kts | 86° |
| 2026-04-21 02:03 | 53.72355 | 120.70793 | 34732 ft | 446 kts | 86° |
| 2026-04-21 02:04 | 53.72711 | 120.81246 | 34736 ft | 446 kts | 86° |
| 2026-04-21 02:04 | 53.73062 | 120.91713 | 34732 ft | 446 kts | 86° |
| 2026-04-21 02:05 | 53.73400 | 121.02188 | 34730 ft | 446 kts | 86° |
| 2026-04-21 02:05 | 53.73725 | 121.12658 | 34724 ft | 446 kts | 86° |
| 2026-04-21 02:06 | 53.74038 | 121.23127 | 34722 ft | 446 kts | 86° |
| 2026-04-21 02:06 | 53.74342 | 121.33602 | 34722 ft | 447 kts | 86° |
| 2026-04-21 02:07 | 53.74641 | 121.44093 | 34722 ft | 447 kts | 86° |
| 2026-04-21 02:07 | 53.74934 | 121.54604 | 34727 ft | 448 kts | 86° |
| 2026-04-21 02:08 | 53.75213 | 121.65042 | 34723 ft | 448 kts | 87° |
| 2026-04-21 02:08 | 53.75481 | 121.75545 | 34726 ft | 448 kts | 87° |
| 2026-04-21 02:09 | 53.75746 | 121.86060 | 34724 ft | 448 kts | 87° |
| 2026-04-21 02:09 | 53.76003 | 121.96575 | 34723 ft | 448 kts | 87° |
| 2026-04-21 02:10 | 53.76247 | 122.07100 | 34718 ft | 448 kts | 87° |
| 2026-04-21 02:10 | 53.76482 | 122.17629 | 34718 ft | 448 kts | 87° |
| 2026-04-21 02:11 | 53.76738 | 122.28161 | 34717 ft | 449 kts | 87° |
| 2026-04-21 02:11 | 53.77008 | 122.38696 | 34716 ft | 449 kts | 87° |
| 2026-04-21 02:12 | 53.77262 | 122.49256 | 34717 ft | 449 kts | 87° |
| 2026-04-21 02:12 | 53.77502 | 122.59812 | 34721 ft | 449 kts | 87° |
| 2026-04-21 02:13 | 53.77724 | 122.70365 | 34716 ft | 449 kts | 88° |
| 2026-04-21 02:13 | 53.77937 | 122.80914 | 34713 ft | 449 kts | 88° |
| 2026-04-21 02:14 | 53.78147 | 122.91405 | 34711 ft | 449 kts | 88° |
| 2026-04-21 02:14 | 53.78348 | 123.01950 | 34713 ft | 449 kts | 88° |
| 2026-04-21 02:15 | 53.78538 | 123.12509 | 34710 ft | 449 kts | 88° |
| 2026-04-21 02:15 | 53.78723 | 123.23079 | 34711 ft | 450 kts | 88° |
| 2026-04-21 02:16 | 53.78887 | 123.33586 | 34705 ft | 450 kts | 88° |
| 2026-04-21 02:16 | 53.79026 | 123.44171 | 34702 ft | 450 kts | 91° |
| 2026-04-21 02:17 | 53.78107 | 123.54627 | 34701 ft | 450 kts | 102° |
| 2026-04-21 02:17 | 53.76783 | 123.64970 | 34698 ft | 451 kts | 102° |
| 2026-04-21 02:18 | 53.75452 | 123.75327 | 34698 ft | 451 kts | 102° |
| 2026-04-21 02:18 | 53.74107 | 123.85675 | 34699 ft | 451 kts | 102° |
| 2026-04-21 02:19 | 53.72746 | 123.96036 | 34702 ft | 451 kts | 102° |
| 2026-04-21 02:19 | 53.71380 | 124.06379 | 34704 ft | 451 kts | 102° |
| 2026-04-21 02:20 | 53.70005 | 124.16723 | 34707 ft | 451 kts | 102° |
| 2026-04-21 02:20 | 53.68624 | 124.27054 | 34708 ft | 451 kts | 102° |
| 2026-04-21 02:21 | 53.67247 | 124.37305 | 34709 ft | 451 kts | 103° |
| 2026-04-21 02:21 | 53.65840 | 124.47612 | 34710 ft | 451 kts | 103° |
| 2026-04-21 02:22 | 53.64430 | 124.57909 | 34710 ft | 451 kts | 103° |
| 2026-04-21 02:22 | 53.63017 | 124.68206 | 34712 ft | 451 kts | 103° |
| 2026-04-21 02:23 | 53.61592 | 124.78501 | 34711 ft | 451 kts | 103° |
| 2026-04-21 02:23 | 53.60163 | 124.88774 | 34714 ft | 451 kts | 103° |
| 2026-04-21 02:24 | 53.58716 | 124.99031 | 34713 ft | 450 kts | 103° |
| 2026-04-21 02:24 | 53.57262 | 125.09278 | 34715 ft | 450 kts | 103° |
| 2026-04-21 02:25 | 53.55808 | 125.19518 | 34716 ft | 450 kts | 103° |
| 2026-04-21 02:25 | 53.54594 | 125.28017 | 34715 ft | 450 kts | 103° |
| 2026-04-21 02:26 | 53.53123 | 125.38247 | 34715 ft | 450 kts | 104° |
| 2026-04-21 02:26 | 53.51642 | 125.48456 | 34715 ft | 449 kts | 104° |
| 2026-04-21 02:27 | 53.50149 | 125.58642 | 34715 ft | 449 kts | 104° |
| 2026-04-21 02:27 | 53.48648 | 125.68821 | 34713 ft | 449 kts | 104° |
| 2026-04-21 02:28 | 53.46800 | 125.78811 | 34711 ft | 448 kts | 116° |
| 2026-04-21 02:28 | 53.43380 | 125.87512 | 34707 ft | 448 kts | 128° |
| 2026-04-21 02:29 | 53.39530 | 125.95733 | 34705 ft | 448 kts | 128° |
| 2026-04-21 02:29 | 53.35687 | 126.03953 | 34707 ft | 448 kts | 128° |
| 2026-04-21 02:30 | 53.31839 | 126.12151 | 34705 ft | 448 kts | 128° |
| 2026-04-21 02:30 | 53.27988 | 126.20339 | 34703 ft | 448 kts | 128° |
| 2026-04-21 02:31 | 53.24128 | 126.28502 | 34706 ft | 448 kts | 128° |
| 2026-04-21 02:31 | 53.20255 | 126.36651 | 34708 ft | 448 kts | 128° |
| 2026-04-21 02:32 | 53.16386 | 126.44782 | 34705 ft | 448 kts | 128° |
| 2026-04-21 02:32 | 53.12511 | 126.52897 | 34702 ft | 447 kts | 128° |
| 2026-04-21 02:33 | 53.08628 | 126.60997 | 34702 ft | 447 kts | 128° |
| 2026-04-21 02:33 | 53.04765 | 126.69029 | 34702 ft | 447 kts | 129° |
| 2026-04-21 02:34 | 53.00875 | 126.77097 | 34700 ft | 447 kts | 129° |
| 2026-04-21 02:34 | 52.96981 | 126.85158 | 34698 ft | 447 kts | 129° |
| 2026-04-21 02:35 | 52.93082 | 126.93200 | 34696 ft | 447 kts | 129° |
| 2026-04-21 02:35 | 52.89177 | 127.01225 | 34689 ft | 447 kts | 129° |
| 2026-04-21 02:36 | 52.85262 | 127.09235 | 34688 ft | 447 kts | 129° |
| 2026-04-21 02:36 | 52.81342 | 127.17224 | 34684 ft | 447 kts | 129° |
| 2026-04-21 02:37 | 52.77425 | 127.25212 | 34681 ft | 447 kts | 129° |
| 2026-04-21 02:37 | 52.73503 | 127.33191 | 34681 ft | 447 kts | 129° |
| 2026-04-21 02:38 | 52.69575 | 127.41153 | 34676 ft | 447 kts | 129° |
| 2026-04-21 02:38 | 52.65658 | 127.49028 | 34672 ft | 447 kts | 129° |
| 2026-04-21 02:39 | 52.61693 | 127.56912 | 34669 ft | 447 kts | 130° |
| 2026-04-21 02:39 | 52.57719 | 127.64788 | 34663 ft | 447 kts | 130° |
| 2026-04-21 02:40 | 52.53746 | 127.72649 | 34661 ft | 447 kts | 130° |
| 2026-04-21 02:40 | 52.49770 | 127.80500 | 34657 ft | 447 kts | 130° |
| 2026-04-21 02:41 | 52.45791 | 127.88344 | 34653 ft | 447 kts | 130° |
| 2026-04-21 02:41 | 52.41806 | 127.96165 | 34655 ft | 447 kts | 130° |
| 2026-04-21 02:42 | 52.37808 | 128.03972 | 34648 ft | 447 kts | 130° |
| 2026-04-21 02:42 | 52.33808 | 128.11765 | 34644 ft | 447 kts | 130° |
| 2026-04-21 02:43 | 52.29805 | 128.19549 | 34642 ft | 447 kts | 130° |
| 2026-04-21 02:43 | 52.25801 | 128.27317 | 34635 ft | 447 kts | 130° |
| 2026-04-21 02:44 | 52.21781 | 128.35071 | 34630 ft | 447 kts | 130° |
| 2026-04-21 02:44 | 52.17757 | 128.42815 | 34630 ft | 448 kts | 130° |
| 2026-04-21 02:45 | 52.13731 | 128.50550 | 34625 ft | 448 kts | 130° |
| 2026-04-21 02:45 | 52.09720 | 128.58228 | 34620 ft | 448 kts | 130° |
| 2026-04-21 02:46 | 52.05680 | 128.65943 | 34618 ft | 448 kts | 130° |
| 2026-04-21 02:46 | 52.01626 | 128.73649 | 34619 ft | 448 kts | 131° |
| 2026-04-21 02:47 | 51.97569 | 128.81336 | 34614 ft | 449 kts | 131° |
| 2026-04-21 02:47 | 51.93510 | 128.89018 | 34615 ft | 449 kts | 131° |
| 2026-04-21 02:48 | 51.89444 | 128.96691 | 34611 ft | 449 kts | 131° |
| 2026-04-21 02:48 | 51.85371 | 129.04347 | 34609 ft | 449 kts | 131° |
| 2026-04-21 02:49 | 51.81284 | 129.11986 | 34607 ft | 449 kts | 131° |
| 2026-04-21 02:49 | 51.77229 | 129.19565 | 34604 ft | 449 kts | 131° |
| 2026-04-21 02:50 | 51.73143 | 129.27197 | 34600 ft | 449 kts | 131° |
| 2026-04-21 02:50 | 51.69045 | 129.34806 | 34597 ft | 449 kts | 131° |
| 2026-04-21 02:51 | 51.64939 | 129.42390 | 34593 ft | 449 kts | 131° |
| 2026-04-21 02:51 | 51.60838 | 129.49970 | 34592 ft | 449 kts | 131° |
| 2026-04-21 02:52 | 51.56725 | 129.57539 | 34588 ft | 449 kts | 131° |
| 2026-04-21 02:52 | 51.52602 | 129.65089 | 34589 ft | 449 kts | 131° |
| 2026-04-21 02:53 | 51.48485 | 129.72632 | 34587 ft | 449 kts | 131° |
| 2026-04-21 02:53 | 51.44355 | 129.80165 | 34588 ft | 449 kts | 131° |
| 2026-04-21 02:54 | 51.40223 | 129.87672 | 34587 ft | 449 kts | 132° |
| 2026-04-21 02:54 | 51.36084 | 129.95169 | 34589 ft | 449 kts | 132° |
| 2026-04-21 02:55 | 51.31931 | 130.02649 | 34592 ft | 449 kts | 132° |
| 2026-04-21 02:55 | 51.27725 | 130.10034 | 34590 ft | 449 kts | 133° |
| 2026-04-21 02:56 | 51.23492 | 130.17386 | 34584 ft | 449 kts | 133° |
| 2026-04-21 02:56 | 51.17177 | 130.28352 | 34581 ft | 449 kts | 133° |
| 2026-04-21 02:57 | 51.12947 | 130.35682 | 34580 ft | 449 kts | 133° |
| 2026-04-21 02:57 | 51.08712 | 130.43004 | 34580 ft | 449 kts | 133° |
| 2026-04-21 02:58 | 51.04475 | 130.50311 | 34577 ft | 449 kts | 133° |
| 2026-04-21 02:58 | 51.00237 | 130.57609 | 34573 ft | 449 kts | 133° |
| 2026-04-21 02:59 | 50.95985 | 130.64886 | 34572 ft | 449 kts | 133° |
| 2026-04-21 02:59 | 50.91736 | 130.72149 | 34566 ft | 449 kts | 133° |
| 2026-04-21 03:00 | 50.87482 | 130.79405 | 34563 ft | 449 kts | 133° |
| 2026-04-21 03:00 | 50.83221 | 130.86643 | 34565 ft | 449 kts | 134° |
| 2026-04-21 03:01 | 50.78954 | 130.93855 | 34562 ft | 449 kts | 134° |
| 2026-04-21 03:01 | 50.74684 | 131.01056 | 34563 ft | 449 kts | 134° |
| 2026-04-21 03:02 | 50.70443 | 131.08201 | 34560 ft | 449 kts | 134° |
| 2026-04-21 03:02 | 50.66167 | 131.15362 | 34558 ft | 448 kts | 134° |
| 2026-04-21 03:03 | 50.61891 | 131.22515 | 34550 ft | 448 kts | 134° |
| 2026-04-21 03:03 | 50.57612 | 131.29647 | 34555 ft | 448 kts | 134° |
| 2026-04-21 03:04 | 50.53329 | 131.36772 | 34560 ft | 448 kts | 134° |
| 2026-04-21 03:04 | 50.49048 | 131.43885 | 34551 ft | 448 kts | 134° |
| 2026-04-21 03:05 | 50.44766 | 131.50972 | 34554 ft | 448 kts | 134° |
| 2026-04-21 03:05 | 50.40467 | 131.58047 | 34548 ft | 448 kts | 134° |
| 2026-04-21 03:06 | 50.36169 | 131.65114 | 34547 ft | 448 kts | 134° |
| 2026-04-21 03:06 | 50.31872 | 131.72174 | 34544 ft | 448 kts | 134° |
| 2026-04-21 03:07 | 50.27561 | 131.79215 | 34543 ft | 448 kts | 135° |
| 2026-04-21 03:07 | 50.23246 | 131.86236 | 34539 ft | 448 kts | 135° |
| 2026-04-21 03:08 | 50.18935 | 131.93259 | 34539 ft | 448 kts | 135° |
| 2026-04-21 03:08 | 50.14653 | 132.00221 | 34531 ft | 448 kts | 135° |
| 2026-04-21 03:09 | 50.10327 | 132.07217 | 34539 ft | 448 kts | 135° |
| 2026-04-21 03:09 | 50.05994 | 132.14200 | 34535 ft | 448 kts | 135° |
| 2026-04-21 03:10 | 50.02050 | 132.21682 | 34526 ft | 450 kts | 123° |
| 2026-04-21 03:10 | 49.98753 | 132.29951 | 34527 ft | 450 kts | 123° |
| 2026-04-21 03:11 | 49.95444 | 132.38203 | 34524 ft | 450 kts | 123° |
| 2026-04-21 03:11 | 49.92132 | 132.46439 | 34524 ft | 450 kts | 123° |
| 2026-04-21 03:12 | 49.88809 | 132.54665 | 34521 ft | 449 kts | 123° |
| 2026-04-21 03:12 | 49.85480 | 132.62859 | 34517 ft | 449 kts | 123° |
| 2026-04-21 03:13 | 49.82157 | 132.71052 | 34518 ft | 449 kts | 123° |
| 2026-04-21 03:13 | 49.78825 | 132.79240 | 34513 ft | 449 kts | 124° |
| 2026-04-21 03:14 | 49.75509 | 132.87348 | 34508 ft | 449 kts | 124° |
| 2026-04-21 03:14 | 49.72166 | 132.95493 | 34505 ft | 449 kts | 124° |
| 2026-04-21 03:15 | 49.68790 | 133.03694 | 34500 ft | 449 kts | 124° |
| 2026-04-21 03:15 | 49.66004 | 133.10444 | 34494 ft | 449 kts | 124° |
| 2026-04-21 03:16 | 49.62100 | 133.19885 | 34493 ft | 449 kts | 124° |
| 2026-04-21 03:16 | 49.58742 | 133.27976 | 34485 ft | 449 kts | 124° |
| 2026-04-21 03:17 | 49.55368 | 133.36075 | 34484 ft | 449 kts | 124° |
| 2026-04-21 03:17 | 49.54226 | 133.38810 | 34363 ft | 449 kts | 124° |
| 2026-04-21 03:17 | 49.51988 | 133.44153 | 34051 ft | 447 kts | 124° |
| 2026-04-21 03:18 | 49.50848 | 133.46865 | 33894 ft | 446 kts | 124° |
| 2026-04-21 03:18 | 49.49184 | 133.50816 | 33669 ft | 446 kts | 124° |
| 2026-04-21 03:18 | 49.47504 | 133.54818 | 33441 ft | 445 kts | 124° |
| 2026-04-21 03:18 | 49.45828 | 133.58817 | 33170 ft | 444 kts | 124° |
| 2026-04-21 03:19 | 49.44157 | 133.62796 | 32799 ft | 443 kts | 124° |
| 2026-04-21 03:19 | 49.42476 | 133.66786 | 31788 ft | 445 kts | 124° |
| 2026-04-21 03:19 | 49.40796 | 133.70764 | 30836 ft | 444 kts | 124° |
| 2026-04-21 03:19 | 49.39124 | 133.74728 | 29966 ft | 440 kts | 124° |
| 2026-04-21 03:20 | 49.37476 | 133.78642 | 28994 ft | 433 kts | 124° |
| 2026-04-21 03:20 | 49.35859 | 133.82484 | 27740 ft | 426 kts | 124° |
| 2026-04-21 03:20 | 49.34254 | 133.86289 | 26738 ft | 423 kts | 124° |
| 2026-04-21 03:20 | 49.32659 | 133.90063 | 25650 ft | 422 kts | 124° |
| 2026-04-21 03:21 | 49.31063 | 133.93832 | 24520 ft | 421 kts | 124° |
| 2026-04-21 03:21 | 49.29482 | 133.97554 | 23820 ft | 411 kts | 124° |
| 2026-04-21 03:21 | 49.27935 | 134.01186 | 23089 ft | 403 kts | 124° |
| 2026-04-21 03:21 | 49.26412 | 134.04754 | 22284 ft | 396 kts | 124° |
| 2026-04-21 03:22 | 49.24921 | 134.08243 | 21609 ft | 389 kts | 124° |
| 2026-04-21 03:22 | 49.23470 | 134.11639 | 20972 ft | 382 kts | 124° |
| 2026-04-21 03:22 | 49.22006 | 134.15068 | 20328 ft | 377 kts | 124° |
| 2026-04-21 03:22 | 49.20577 | 134.18415 | 19711 ft | 374 kts | 124° |
| 2026-04-21 03:23 | 49.19179 | 134.21682 | 19121 ft | 370 kts | 124° |
| 2026-04-21 03:23 | 49.17773 | 134.24962 | 18531 ft | 368 kts | 124° |
| 2026-04-21 03:23 | 49.16374 | 134.28221 | 17956 ft | 365 kts | 125° |
| 2026-04-21 03:23 | 49.14979 | 134.31460 | 17352 ft | 364 kts | 125° |
| 2026-04-21 03:24 | 49.13593 | 134.34676 | 16789 ft | 362 kts | 124° |
| 2026-04-21 03:24 | 49.12210 | 134.37883 | 16276 ft | 361 kts | 124° |
| 2026-04-21 03:24 | 49.10827 | 134.41080 | 15760 ft | 361 kts | 124° |
| 2026-04-21 03:24 | 49.09442 | 134.44271 | 15261 ft | 360 kts | 124° |
| 2026-04-21 03:25 | 49.08059 | 134.47460 | 14772 ft | 360 kts | 123° |
| 2026-04-21 03:25 | 49.06720 | 134.50682 | 14296 ft | 360 kts | 122° |
| 2026-04-21 03:25 | 49.05416 | 134.53951 | 13816 ft | 360 kts | 121° |
| 2026-04-21 03:25 | 49.04133 | 134.57229 | 13322 ft | 360 kts | 121° |
| 2026-04-21 03:26 | 49.02869 | 134.60465 | 12790 ft | 360 kts | 121° |
| 2026-04-21 03:26 | 49.01586 | 134.63730 | 12256 ft | 358 kts | 121° |
| 2026-04-21 03:26 | 49.00301 | 134.66971 | 11740 ft | 356 kts | 121° |
| 2026-04-21 03:26 | 48.99016 | 134.70189 | 11176 ft | 355 kts | 121° |
| 2026-04-21 03:27 | 48.97734 | 134.73389 | 10627 ft | 353 kts | 121° |
| 2026-04-21 03:27 | 48.96478 | 134.76516 | 10464 ft | 339 kts | 121° |
| 2026-04-21 03:27 | 48.95276 | 134.79504 | 10328 ft | 325 kts | 121° |
| 2026-04-21 03:27 | 48.94116 | 134.82388 | 10198 ft | 312 kts | 121° |
| 2026-04-21 03:28 | 48.93171 | 134.84740 | 11278 ft | 237 kts | 122° |
| 2026-04-21 03:28 | 48.92255 | 134.87058 | 11099 ft | 277 kts | 122° |
| 2026-04-21 03:28 | 48.91221 | 134.89624 | 10460 ft | 287 kts | 122° |
| 2026-04-21 03:29 | 48.90186 | 134.92165 | 10297 ft | 279 kts | 122° |
| 2026-04-21 03:29 | 48.89171 | 134.94652 | 10004 ft | 275 kts | 122° |
| 2026-04-21 03:29 | 48.88164 | 134.97125 | 9661 ft | 275 kts | 122° |
| 2026-04-21 03:29 | 48.87157 | 134.99597 | 9488 ft | 276 kts | 122° |
| 2026-04-21 03:30 | 48.86146 | 135.02080 | 9276 ft | 279 kts | 121° |
| 2026-04-21 03:30 | 48.85114 | 135.04623 | 8754 ft | 282 kts | 121° |
| 2026-04-21 03:30 | 48.84095 | 135.07134 | 8476 ft | 277 kts | 122° |
| 2026-04-21 03:30 | 48.83087 | 135.09611 | 8098 ft | 275 kts | 121° |
| 2026-04-21 03:31 | 48.82074 | 135.12100 | 7576 ft | 279 kts | 121° |
| 2026-04-21 03:31 | 48.81063 | 135.14581 | 7039 ft | 273 kts | 121° |
| 2026-04-21 03:31 | 48.80074 | 135.17000 | 6515 ft | 267 kts | 121° |
| 2026-04-21 03:31 | 48.79102 | 135.19374 | 5992 ft | 262 kts | 121° |
| 2026-04-21 03:32 | 48.78146 | 135.21706 | 5483 ft | 259 kts | 121° |
| 2026-04-21 03:32 | 48.77201 | 135.24012 | 4944 ft | 258 kts | 121° |
| 2026-04-21 03:32 | 48.76265 | 135.26304 | 4748 ft | 251 kts | 121° |
| 2026-04-21 03:32 | 48.75347 | 135.28513 | 4528 ft | 246 kts | 126° |
| 2026-04-21 03:33 | 48.74252 | 135.30441 | 4376 ft | 239 kts | 133° |
| 2026-04-21 03:33 | 48.73148 | 135.32267 | 4257 ft | 231 kts | 133° |
| 2026-04-21 03:33 | 48.72086 | 135.34032 | 4153 ft | 223 kts | 133° |
| 2026-04-21 03:33 | 48.71039 | 135.35710 | 3967 ft | 218 kts | 141° |
| 2026-04-21 03:34 | 48.69764 | 135.36886 | 3664 ft | 215 kts | 162° |
| 2026-04-21 03:34 | 48.68332 | 135.37329 | 3549 ft | 202 kts | 181° |
| 2026-04-21 03:34 | 48.66998 | 135.37094 | 3353 ft | 191 kts | 200° |
| 2026-04-21 03:34 | 48.65820 | 135.36291 | 3163 ft | 182 kts | 218° |
| 2026-04-21 03:35 | 48.64863 | 135.35087 | 2951 ft | 177 kts | 227° |
| 2026-04-21 03:35 | 48.63963 | 135.33849 | 2736 ft | 172 kts | 226° |
| 2026-04-21 03:35 | 48.63083 | 135.32641 | 2510 ft | 169 kts | 227° |
| 2026-04-21 03:35 | 48.62221 | 135.31457 | 2306 ft | 164 kts | 226° |
| 2026-04-21 03:36 | 48.61415 | 135.30353 | 2108 ft | 149 kts | 227° |
| 2026-04-21 03:36 | 48.60673 | 135.29336 | 1933 ft | 141 kts | 227° |
| 2026-04-21 03:36 | 48.59954 | 135.28350 | 1752 ft | 138 kts | 227° |
| 2026-04-21 03:36 | 48.59243 | 135.27374 | 1574 ft | 138 kts | 227° |
| 2026-04-21 03:37 | 48.58531 | 135.26399 | 1404 ft | 138 kts | 227° |
| 2026-04-21 03:37 | 48.57821 | 135.25426 | 1225 ft | 138 kts | 227° |
| 2026-04-21 03:37 | 48.57114 | 135.24454 | 1049 ft | 137 kts | 227° |
| 2026-04-21 03:37 | 48.56411 | 135.23493 | 886 ft | 136 kts | 226° |
| 2026-04-21 03:38 | 48.55712 | 135.22546 | 698 ft | 134 kts | 226° |
| 2026-04-21 03:38 | 48.55025 | 135.21598 | 530 ft | 133 kts | 225° |
| 2026-04-21 03:38 | 48.54339 | 135.20666 | 379 ft | 133 kts | 224° |
| 2026-04-21 03:38 | 48.53667 | 135.19719 | 260 ft | 129 kts | 226° |
| 2026-04-21 03:39 | 48.53039 | 135.18734 | 447 ft | 133 kts | 231° |
| 2026-04-21 03:39 | 48.52312 | 135.17740 | 1040 ft | 150 kts | 225° |
| 2026-04-21 03:39 | 48.51529 | 135.16698 | 1847 ft | 151 kts | 226° |
| 2026-04-21 03:39 | 48.50694 | 135.15582 | 2447 ft | 171 kts | 226° |
| 2026-04-21 03:40 | 48.49755 | 135.14323 | 2878 ft | 188 kts | 226° |
| 2026-04-21 03:40 | 48.48756 | 135.12918 | 2987 ft | 199 kts | 234° |
| 2026-04-21 03:40 | 48.48256 | 135.11013 | 2978 ft | 205 kts | 271° |
| 2026-04-21 03:40 | 48.48644 | 135.08942 | 2998 ft | 212 kts | 304° |
| 2026-04-21 03:41 | 48.49796 | 135.07562 | 3000 ft | 221 kts | 338° |
| 2026-04-21 03:41 | 48.51342 | 135.07396 | 3000 ft | 231 kts | 11° |
| 2026-04-21 03:41 | 48.52777 | 135.08537 | 3003 ft | 238 kts | 37° |
| 2026-04-21 03:41 | 48.54015 | 135.10222 | 2997 ft | 240 kts | 41° |
| 2026-04-21 03:42 | 48.55313 | 135.11794 | 2997 ft | 239 kts | 31° |
| 2026-04-21 03:42 | 48.56696 | 135.13167 | 2918 ft | 237 kts | 30° |
| 2026-04-21 03:42 | 48.58080 | 135.14509 | 2551 ft | 236 kts | 28° |
| 2026-04-21 03:42 | 48.59502 | 135.15718 | 2244 ft | 232 kts | 24° |
| 2026-04-21 03:43 | 48.60898 | 135.16790 | 2191 ft | 219 kts | 23° |
| 2026-04-21 03:43 | 48.62241 | 135.17810 | 2192 ft | 210 kts | 23° |
| 2026-04-21 03:43 | 48.63507 | 135.18777 | 2191 ft | 200 kts | 23° |
| 2026-04-21 03:43 | 48.64732 | 135.19721 | 2191 ft | 196 kts | 23° |
| 2026-04-21 03:44 | 48.65946 | 135.20656 | 2194 ft | 195 kts | 24° |
| 2026-04-21 03:44 | 48.66967 | 135.22000 | 2196 ft | 200 kts | 54° |
| 2026-04-21 03:44 | 48.67691 | 135.23799 | 2198 ft | 200 kts | 54° |
| 2026-04-21 03:44 | 48.68417 | 135.25586 | 2230 ft | 199 kts | 59° |
| 2026-04-21 03:45 | 48.68696 | 135.27613 | 2187 ft | 201 kts | 94° |
| 2026-04-21 03:45 | 48.68179 | 135.29550 | 2194 ft | 201 kts | 124° |
| 2026-04-21 03:45 | 48.67184 | 135.31009 | 2193 ft | 201 kts | 145° |
| 2026-04-21 03:45 | 48.65988 | 135.32083 | 2190 ft | 199 kts | 161° |
| 2026-04-21 03:46 | 48.64653 | 135.32510 | 2192 ft | 195 kts | 182° |
| 2026-04-21 03:46 | 48.63372 | 135.32268 | 2178 ft | 172 kts | 201° |
| 2026-04-21 03:46 | 48.62371 | 135.31569 | 2204 ft | 150 kts | 219° |
| 2026-04-21 03:46 | 48.61604 | 135.30613 | 2102 ft | 142 kts | 227° |
| 2026-04-21 03:47 | 48.60883 | 135.29623 | 1958 ft | 139 kts | 228° |
| 2026-04-21 03:47 | 48.60172 | 135.28647 | 1793 ft | 138 kts | 227° |
| 2026-04-21 03:47 | 48.59462 | 135.27673 | 1628 ft | 138 kts | 227° |
| 2026-04-21 03:47 | 48.58752 | 135.26701 | 1459 ft | 138 kts | 227° |
| 2026-04-21 03:48 | 48.58043 | 135.25729 | 1285 ft | 137 kts | 227° |
| 2026-04-21 03:48 | 48.57336 | 135.24762 | 1102 ft | 137 kts | 227° |
| 2026-04-21 03:48 | 48.56635 | 135.23803 | 927 ft | 135 kts | 226° |
| 2026-04-21 03:48 | 48.55941 | 135.22855 | 755 ft | 134 kts | 226° |
| 2026-04-21 03:49 | 48.55253 | 135.21914 | 595 ft | 133 kts | 225° |
| 2026-04-21 03:49 | 48.54569 | 135.20979 | 431 ft | 132 kts | 225° |
| 2026-04-21 03:49 | 48.53885 | 135.20052 | 283 ft | 132 kts | 225° |
| 2026-04-21 03:49 | 48.53266 | 135.19177 | 251 ft | 104 kts | 220° |
| 2026-04-21 03:50 | 48.52853 | 135.18627 | 247 ft | 55 kts | 221° |
| 2026-04-21 03:50 | 48.52671 | 135.18381 | 244 ft | 30 kts | 221° |
| 2026-04-21 03:50 | 48.52514 | 135.18171 | 240 ft | 28 kts | 221° |
| 2026-04-21 03:50 | 48.52399 | 135.18017 | 242 ft | 22 kts | 223° |
| 2026-04-21 03:51 | 48.52300 | 135.17876 | 246 ft | 16 kts | 233° |
| 2026-04-21 03:51 | 48.52311 | 135.17743 | 246 ft | 15 kts | 308° |
| 2026-04-21 03:51 | 48.52384 | 135.17623 | 246 ft | 15 kts | 313° |
| 2026-04-21 03:51 | 48.52453 | 135.17509 | 245 ft | 12 kts | 311° |
| 2026-04-21 03:52 | 48.52504 | 135.17425 | 245 ft | 10 kts | 319° |
| 2026-04-21 03:52 | 48.52553 | 135.17358 | 245 ft | 10 kts | 300° |
| 2026-04-21 03:52 | 48.52584 | 135.17294 | 245 ft | 4 kts | 313° |
| 2026-04-21 03:52 | 48.52587 | 135.17289 | 245 ft | 0 kts | 313° |